Time;durP1;ratioP1;P1;durP2;ratioP2;P2;SDS_P1;SDS_P2;PMS_P1;PMS_P2;Temp;Humidity;BMP_temperature;BMP_pressure;BME280_temperature;BME280_humidity;BME280_pressure;Samples;Min_cycle;Max_cycle;Signal;HPM_P1;HPM_P2
2021/05/18 00:00:32;;;;;;;37.97;15.00;;;15.40;61.60;;;;;;5041531;28;20135;-64
2021/05/18 00:02:58;;;;;;;39.20;15.82;;;15.40;61.70;;;;;;5043973;28;20461;-63
2021/05/18 00:05:28;;;;;;;34.28;16.73;;;15.40;61.60;;;;;;5045488;28;20521;-64
2021/05/18 00:07:59;;;;;;;34.10;15.63;;;15.40;61.60;;;;;;5046197;28;20040;-64
2021/05/18 00:13:13;;;;;;;44.97;17.33;;;15.40;61.70;;;;;;5040041;28;20052;-64
2021/05/18 00:15:39;;;;;;;35.65;15.35;;;15.40;61.70;;;;;;5044470;28;20655;-64
2021/05/18 00:18:07;;;;;;;36.92;16.40;;;15.40;61.60;;;;;;5039816;27;20086;-64
2021/05/18 00:20:35;;;;;;;41.63;16.48;;;15.40;61.60;;;;;;5044030;28;20417;-65
2021/05/18 00:23:05;;;;;;;44.22;17.13;;;15.40;61.60;;;;;;5046115;28;20032;-64
2021/05/18 00:25:30;;;;;;;35.17;14.73;;;15.40;61.60;;;;;;5044727;28;20036;-64
2021/05/18 00:27:56;;;;;;;32.55;14.80;;;15.40;61.60;;;;;;5045128;28;20487;-64
2021/05/18 00:30:23;;;;;;;40.00;16.05;;;15.40;61.60;;;;;;5049097;28;20040;-64
2021/05/18 00:32:48;;;;;;;40.25;16.58;;;15.30;61.60;;;;;;5044132;28;20045;-64
2021/05/18 00:35:16;;;;;;;37.72;16.75;;;15.30;61.60;;;;;;5050672;28;20493;-64
2021/05/18 00:37:42;;;;;;;39.75;17.27;;;15.30;61.60;;;;;;5047611;28;20087;-64
2021/05/18 00:40:15;;;;;;;37.35;15.55;;;15.30;61.50;;;;;;5048629;28;20115;-64
2021/05/18 00:42:50;;;;;;;38.63;16.50;;;15.20;61.40;;;;;;5050243;28;20394;-64
2021/05/18 00:45:32;;;;;;;40.40;16.92;;;15.20;61.30;;;;;;5047822;28;20036;-64
2021/05/18 00:48:02;;;;;;;41.15;16.17;;;15.10;61.20;;;;;;5052322;28;20578;-64
2021/05/18 00:50:28;;;;;;;39.03;16.45;;;15.10;61.40;;;;;;5053383;28;20048;-64
2021/05/18 00:52:54;;;;;;;41.22;16.48;;;15.00;61.50;;;;;;5042193;28;20041;-64
2021/05/18 00:55:47;;;;;;;45.30;17.05;;;15.00;61.70;;;;;;5043634;28;20040;-64
2021/05/18 00:58:33;;;;;;;38.08;17.30;;;15.00;61.70;;;;;;5038787;28;20699;-64
2021/05/18 01:01:05;;;;;;;40.58;16.27;;;14.90;61.60;;;;;;5042154;28;20814;-64
2021/05/18 01:03:37;;;;;;;39.20;15.52;;;14.90;61.70;;;;;;5045610;28;20533;-64
2021/05/18 01:09:13;;;;;;;39.85;16.23;;;14.80;61.80;;;;;;5040930;28;20038;-64
2021/05/18 01:11:41;;;;;;;46.08;16.58;;;14.80;61.80;;;;;;5039686;28;20048;-64
2021/05/18 01:14:15;;;;;;;40.80;14.45;;;14.70;61.80;;;;;;5051509;28;20040;-64
2021/05/18 01:16:44;;;;;;;44.20;15.35;;;14.70;61.90;;;;;;5043699;28;20055;-64
2021/05/18 01:19:13;;;;;;;38.22;15.25;;;14.70;61.90;;;;;;5050800;28;20032;-64
2021/05/18 01:21:42;;;;;;;38.40;14.85;;;14.70;62.00;;;;;;5046472;28;20427;-64
2021/05/18 01:24:09;;;;;;;42.00;14.18;;;14.70;62.00;;;;;;5041063;28;20039;-64
2021/05/18 01:26:38;;;;;;;33.47;13.60;;;14.60;62.00;;;;;;5049207;28;20051;-64
2021/05/18 01:29:07;;;;;;;34.95;13.88;;;14.60;62.20;;;;;;5047662;28;20122;-64
2021/05/18 01:31:35;;;;;;;41.47;14.85;;;14.70;62.30;;;;;;5043441;28;20028;-64
2021/05/18 01:34:06;;;;;;;36.50;13.35;;;14.70;62.30;;;;;;5042263;28;20035;-64
2021/05/18 01:36:35;;;;;;;44.58;12.43;;;14.70;62.30;;;;;;5056411;28;20036;-64
2021/05/18 01:44:30;;;;;;;35.53;12.57;;;14.70;62.20;;;;;;5046335;28;20041;-64
2021/05/18 01:47:01;;;;;;;43.25;12.65;;;14.70;62.20;;;;;;5042223;28;20033;-64
2021/05/18 01:49:28;;;;;;;39.15;12.80;;;14.70;62.20;;;;;;5045122;28;20159;-64
2021/05/18 01:51:55;;;;;;;31.95;13.10;;;14.70;62.80;;;;;;5040474;28;20048;-64
2021/05/18 01:54:25;;;;;;;36.63;11.98;;;14.70;61.90;;;;;;5045822;28;20044;-64
2021/05/18 01:59:23;;;;;;;35.90;11.73;;;14.60;61.70;;;;;;5038492;28;20622;-64
2021/05/18 02:01:57;;;;;;;32.35;12.68;;;14.60;61.80;;;;;;5049114;28;20221;-63
2021/05/18 02:04:43;;;;;;;33.65;13.43;;;14.50;61.80;;;;;;5039905;28;20047;-64
2021/05/18 02:07:16;;;;;;;30.95;13.35;;;14.50;61.90;;;;;;5042327;28;20071;-64
2021/05/18 02:09:44;;;;;;;36.72;13.32;;;14.50;61.90;;;;;;5043668;28;20074;-64
2021/05/18 02:12:12;;;;;;;38.53;12.65;;;14.40;62.00;;;;;;5037467;28;20047;-64
2021/05/18 02:14:43;;;;;;;35.92;13.32;;;14.40;62.00;;;;;;5042595;28;20515;-64
2021/05/18 02:25:08;;;;;;;33.53;13.00;;;14.40;62.20;;;;;;5042440;28;20063;-64
2021/05/18 02:27:34;;;;;;;41.30;13.35;;;14.40;62.20;;;;;;5038065;28;20036;-64
2021/05/18 02:30:03;;;;;;;37.92;14.25;;;14.40;62.30;;;;;;5024180;28;20326;-64
2021/05/18 02:32:30;;;;;;;37.72;13.90;;;14.30;62.10;;;;;;5034272;28;20114;-64
2021/05/18 02:34:58;;;;;;;44.15;13.95;;;14.30;62.10;;;;;;5040786;28;20037;-64
2021/05/18 02:37:26;;;;;;;36.45;14.45;;;14.30;62.20;;;;;;5038858;28;20161;-65
2021/05/18 02:39:54;;;;;;;43.08;14.57;;;14.30;62.20;;;;;;5038271;28;20558;-64
2021/05/18 02:42:20;;;;;;;32.92;14.43;;;14.30;62.20;;;;;;5041808;28;20119;-64
2021/05/18 02:50:04;;;;;;;40.28;14.80;;;14.40;62.40;;;;;;5039898;28;20824;-64
2021/05/18 02:52:31;;;;;;;44.30;14.60;;;14.40;62.40;;;;;;5040244;28;20041;-64
2021/05/18 02:54:59;;;;;;;38.40;14.63;;;14.40;62.40;;;;;;5032643;28;20418;-64
2021/05/18 02:57:33;;;;;;;33.33;13.60;;;14.40;62.40;;;;;;5043746;28;20485;-64
2021/05/18 03:00:05;;;;;;;40.83;13.88;;;14.40;62.40;;;;;;5029986;28;20102;-64
2021/05/18 03:02:33;;;;;;;32.40;13.77;;;14.40;62.40;;;;;;5039251;28;20575;-64
2021/05/18 03:04:59;;;;;;;38.83;13.68;;;14.40;62.50;;;;;;5040391;28;20145;-64
2021/05/18 03:07:27;;;;;;;40.28;13.93;;;14.40;62.50;;;;;;5046829;28;20550;-64
2021/05/18 03:09:52;;;;;;;34.53;13.98;;;14.40;62.50;;;;;;5043764;28;20169;-64
2021/05/18 03:12:20;;;;;;;28.88;13.23;;;14.40;62.50;;;;;;5049599;28;20054;-64
2021/05/18 03:14:46;;;;;;;31.42;13.93;;;14.40;62.60;;;;;;5043016;28;20086;-64
2021/05/18 03:17:12;;;;;;;42.13;14.25;;;14.40;62.60;;;;;;5040183;28;20110;-64
2021/05/18 03:19:40;;;;;;;31.65;14.20;;;14.40;62.60;;;;;;5045838;28;21826;-64
2021/05/18 03:22:08;;;;;;;41.60;13.98;;;14.40;62.60;;;;;;5042654;28;20101;-64
2021/05/18 03:24:42;;;;;;;33.38;13.02;;;14.40;62.50;;;;;;5042856;28;20713;-64
2021/05/18 03:27:08;;;;;;;38.40;14.23;;;14.40;62.50;;;;;;5047641;28;20040;-64
2021/05/18 03:29:34;;;;;;;34.22;13.25;;;14.40;62.60;;;;;;5046911;28;20044;-64
2021/05/18 03:34:47;;;;;;;31.33;13.98;;;14.40;62.60;;;;;;5048419;28;20085;-64
2021/05/18 03:37:43;;;;;;;36.25;14.00;;;14.40;62.60;;;;;;5050024;28;20048;-64
2021/05/18 03:40:16;;;;;;;35.75;13.63;;;14.40;62.60;;;;;;5040382;28;20214;-65
2021/05/18 03:42:49;;;;;;;36.95;13.38;;;14.40;62.60;;;;;;5038015;28;20510;-64
2021/05/18 03:45:21;;;;;;;37.33;14.30;;;14.50;62.70;;;;;;5038372;28;20051;-64
2021/05/18 03:58:55;;;;;;;39.10;14.18;;;14.50;62.70;;;;;;5041316;28;20476;-64
2021/05/18 04:04:20;;;;;;;33.60;13.40;;;14.60;62.60;;;;;;5047583;28;20076;-64
2021/05/18 04:17:55;;;;;;;33.92;13.70;;;14.60;62.30;;;;;;5045362;28;20079;-64
2021/05/18 04:20:35;;;;;;;28.98;12.60;;;14.60;62.20;;;;;;5044696;28;20067;-64
2021/05/18 04:42:32;;;;;;;27.48;14.65;;;14.40;62.40;;;;;;5039917;28;20048;-64
2021/05/18 05:01:14;;;;;;;34.53;15.52;;;14.70;62.80;;;;;;5047057;28;20108;-64
2021/05/18 05:06:20;;;;;;;31.98;14.82;;;14.80;62.80;;;;;;5041397;28;20037;-64
2021/05/18 05:16:27;;;;;;;30.70;15.50;;;15.10;62.80;;;;;;5047454;28;20063;-64
2021/05/18 05:18:53;;;;;;;27.73;14.70;;;15.10;62.90;;;;;;5048577;28;20128;-64
2021/05/18 05:21:21;;;;;;;29.77;14.43;;;15.30;63.00;;;;;;5056132;28;20040;-64
2021/05/18 05:23:48;;;;;;;30.38;15.05;;;15.30;63.00;;;;;;5051144;28;20029;-64
2021/05/18 05:26:16;;;;;;;30.48;14.70;;;15.40;63.00;;;;;;5048712;28;20068;-64
2021/05/18 05:28:44;;;;;;;32.97;14.75;;;15.50;62.80;;;;;;5052140;28;20029;-64
2021/05/18 05:31:11;;;;;;;27.48;14.18;;;15.60;62.70;;;;;;5048425;28;20033;-64
2021/05/18 05:33:37;;;;;;;24.55;13.55;;;15.80;62.50;;;;;;5056975;28;20033;-64
2021/05/18 05:36:05;;;;;;;21.98;13.18;;;15.90;62.60;;;;;;5037335;28;20043;-65
2021/05/18 05:38:36;;;;;;;23.75;12.90;;;16.00;62.50;;;;;;5047763;28;20090;-64
2021/05/18 05:41:04;;;;;;;23.25;12.75;;;16.20;63.10;;;;;;5044800;28;20124;-64
2021/05/18 05:43:29;;;;;;;28.55;12.18;;;16.50;61.90;;;;;;5057909;28;20047;-64
2021/05/18 05:45:55;;;;;;;21.30;11.75;;;16.70;61.00;;;;;;5054647;28;20036;-64
2021/05/18 05:48:20;;;;;;;22.90;12.20;;;16.80;60.50;;;;;;5059180;28;20133;-64
2021/05/18 05:50:48;;;;;;;17.75;11.40;;;16.90;60.00;;;;;;5047117;28;20037;-64
2021/05/18 05:53:15;;;;;;;16.77;11.18;;;17.30;60.50;;;;;;5061645;28;20451;-65
2021/05/18 05:55:43;;;;;;;16.92;9.85;;;17.90;59.90;;;;;;5062395;28;20881;-65
2021/05/18 05:58:13;;;;;;;12.38;8.00;;;18.80;59.30;;;;;;5061112;28;20123;-64
2021/05/18 06:00:42;;;;;;;13.43;8.40;;;;;;;;;;5068376;28;20078;-65
2021/05/18 06:03:10;;;;;;;12.63;7.40;;;;;;;;;;5061600;28;20828;-65
2021/05/18 06:05:36;;;;;;;12.30;7.45;;;;;;;;;;5064932;28;20170;-65
2021/05/18 06:08:02;;;;;;;14.50;7.78;;;;;;;;;;5044980;28;20083;-65
2021/05/18 06:10:38;;;;;;;9.18;6.55;;;;;;;;;;5056165;28;20036;-65
2021/05/18 06:29:38;;;;;;;11.57;6.82;;;;;;;;;;5044894;28;20037;-65
2021/05/18 06:35:37;;;;;;;24.33;6.57;;;;;;;;;;5061518;28;20071;-64
2021/05/18 06:41:08;;;;;;;11.82;7.28;;;;;;;;;;5059013;28;20056;-65
2021/05/18 06:43:27;;;;;;;13.90;7.20;;;20.40;57.20;;;;;;5054749;28;20135;-65
2021/05/18 06:46:10;;;;;;;14.55;7.60;;;23.00;41.30;;;;;;5046887;28;20319;-65
2021/05/18 06:48:38;;;;;;;9.52;7.25;;;22.40;42.00;;;;;;5056523;28;20116;-65
2021/05/18 06:51:04;;;;;;;9.95;7.00;;;21.90;43.10;;;;;;5071711;28;20056;-64
2021/05/18 06:53:32;;;;;;;13.48;7.22;;;21.50;43.80;;;;;;5052286;28;20048;-64
2021/05/18 06:56:01;;;;;;;10.30;7.70;;;21.30;44.70;;;;;;5050627;28;20040;-64
2021/05/18 07:01:08;;;;;;;11.52;6.38;;;21.00;46.00;;;;;;5062371;28;20043;-64
2021/05/18 07:03:41;;;;;;;8.02;6.10;;;20.80;46.00;;;;;;5064759;28;20048;-64
2021/05/18 07:06:40;;;;;;;9.30;5.25;;;20.80;45.60;;;;;;5061800;28;20094;-64
2021/05/18 07:08:56;;;;;;;7.10;5.95;;;20.70;45.30;;;;;;5061430;28;20732;-64
2021/05/18 07:11:25;;;;;;;12.35;6.82;;;20.60;45.40;;;;;;5064555;28;20032;-64
2021/05/18 07:13:53;;;;;;;10.80;6.05;;;20.50;45.90;;;;;;5058597;28;20033;-64
2021/05/18 07:16:19;;;;;;;8.27;6.10;;;20.50;46.50;;;;;;5059455;28;20573;-65
2021/05/18 07:18:45;;;;;;;12.20;6.30;;;20.40;46.40;;;;;;5059794;28;20044;-64
2021/05/18 07:21:10;;;;;;;6.93;5.22;;;20.70;47.80;;;;;;5059933;28;20733;-65
2021/05/18 07:23:36;;;;;;;9.45;5.38;;;21.70;45.60;;;;;;5061963;28;20154;-65
2021/05/18 07:26:05;;;;;;;10.35;5.68;;;22.20;44.80;;;;;;5063737;28;20554;-65
2021/05/18 07:28:35;;;;;;;7.18;4.25;;;;;;;;;;5062304;28;20036;-64
2021/05/18 07:31:02;;;;;;;7.45;3.80;;;;;;;;;;5057934;28;20037;-65
2021/05/18 07:33:28;;;;;;;5.70;4.25;;;;;;;;;;5067461;28;20047;-65
2021/05/18 07:35:58;;;;;;;10.60;4.80;;;;;;;;;;5065207;28;20422;-65
2021/05/18 07:38:30;;;;;;;6.55;4.68;;;;;;;;;;5058517;28;20032;-65
2021/05/18 07:40:56;;;;;;;6.53;4.60;;;;;;;;;;5060790;28;20225;-64
2021/05/18 07:43:22;;;;;;;8.80;5.13;;;;;;;;;;5063172;28;20098;-64
2021/05/18 07:45:55;;;;;;;6.00;4.25;;;;;;;;;;5060687;28;20090;-65
2021/05/18 07:51:06;;;;;;;8.68;4.78;;;;;;;;;;5058263;28;20036;-64
2021/05/18 08:07:18;;;;;;;4.13;2.67;;;25.60;35.80;;;;;;5064753;28;20448;-64
2021/05/18 08:09:47;;;;;;;5.53;3.30;;;25.50;37.20;;;;;;5072032;28;20152;-65
2021/05/18 08:12:16;;;;;;;5.55;3.22;;;;;;;;;;5054586;28;20039;-65
2021/05/18 08:14:52;;;;;;;8.65;3.30;;;;;;;;;;5059191;28;20047;-65
2021/05/18 08:17:22;;;;;;;4.20;3.10;;;;;;;;;;5060166;28;20036;-64
2021/05/18 09:29:11;;;;;;;5.15;2.70;;;;;;;;;;5060650;28;20097;-64
2021/05/18 10:18:26;;;;;;;4.20;2.70;;;25.20;33.30;;;;;;5060470;28;20032;-63
2021/05/18 10:36:35;;;;;;;2.60;2.40;;;;;;;;;;5064392;28;20028;-64
2021/05/18 10:39:17;;;;;;;4.07;2.55;;;;;;;;;;5067777;28;20649;-65
2021/05/18 10:41:45;;;;;;;4.15;2.60;;;;;;;;;;5058510;28;20576;-64
2021/05/18 10:44:13;;;;;;;3.30;2.08;;;;;;;;;;5047808;28;20040;-64
2021/05/18 10:46:50;;;;;;;3.47;2.13;;;;;;;;;;5050988;28;20037;-64
2021/05/18 10:49:31;;;;;;;2.67;2.42;;;;;;;;;;5058017;28;20041;-64
2021/05/18 10:51:59;;;;;;;3.30;2.80;;;;;;;;;;5060388;28;20040;-64
2021/05/18 10:54:26;;;;;;;3.38;2.72;;;;;;;;;;5065097;28;20090;-64
2021/05/18 10:56:57;;;;;;;4.18;2.63;;;;;;;;;;5072857;28;20091;-64
2021/05/18 10:59:42;;;;;;;5.38;3.08;;;29.40;29.80;;;;;;5057970;28;20117;-64
2021/05/18 11:02:20;;;;;;;4.00;3.22;;;28.70;28.80;;;;;;5062740;28;20126;-64
2021/05/18 11:04:48;;;;;;;4.25;3.30;;;28.20;29.90;;;;;;5058263;28;20036;-64
2021/05/18 11:07:20;;;;;;;4.22;3.17;;;27.90;30.60;;;;;;5060982;28;20512;-64
2021/05/18 11:09:52;;;;;;;5.78;3.08;;;27.80;30.90;;;;;;5050563;28;20503;-64
2021/05/18 11:12:20;;;;;;;4.78;2.42;;;27.90;30.70;;;;;;5054542;28;20059;-64
2021/05/18 11:15:05;;;;;;;5.38;2.85;;;27.80;30.70;;;;;;5055379;28;20163;-64
2021/05/18 11:17:36;;;;;;;3.97;2.45;;;27.70;30.10;;;;;;5055822;28;20525;-64
2021/05/18 11:23:23;;;;;;;7.55;2.75;;;27.10;31.00;;;;;;5059279;28;20040;-63
2021/05/18 11:25:59;;;;;;;6.10;2.90;;;;;;;;;;5059988;28;20051;-64
2021/05/18 11:28:27;;;;;;;4.10;2.70;;;26.90;30.60;;;;;;5061472;28;20036;-64
2021/05/18 11:30:58;;;;;;;4.50;2.70;;;26.00;31.40;;;;;;5064743;28;20036;-64
2021/05/18 11:33:33;;;;;;;3.95;2.80;;;25.60;33.30;;;;;;5060503;28;20516;-64
2021/05/18 11:36:10;;;;;;;5.35;3.08;;;25.60;32.80;;;;;;5061570;28;21834;-64
2021/05/18 11:38:41;;;;;;;4.88;3.10;;;25.70;34.00;;;;;;5060969;28;20115;-64
2021/05/18 11:41:09;;;;;;;5.95;2.70;;;26.00;32.80;;;;;;5060680;28;20035;-64
2021/05/18 11:43:37;;;;;;;5.55;2.50;;;26.20;33.70;;;;;;5061905;28;20041;-64
2021/05/18 11:46:09;;;;;;;6.20;2.90;;;26.40;34.80;;;;;;5057062;28;20060;-64
2021/05/18 11:48:38;;;;;;;3.45;2.88;;;;;;;;;;5059197;28;20051;-64
2021/05/18 11:51:14;;;;;;;3.22;2.75;;;26.50;33.80;;;;;;5055322;28;20086;-64
2021/05/18 11:53:48;;;;;;;7.28;2.50;;;26.90;32.70;;;;;;5055525;28;20040;-63
2021/05/18 11:56:28;;;;;;;3.45;2.90;;;26.70;32.20;;;;;;5047134;28;20816;-63
2021/05/18 11:59:20;;;;;;;4.20;2.90;;;26.50;32.80;;;;;;5046535;28;20048;-64
2021/05/18 12:02:05;;;;;;;3.00;2.28;;;26.30;31.60;;;;;;5046902;28;20044;-64
2021/05/18 12:04:32;;;;;;;8.63;2.83;;;26.10;32.50;;;;;;5048505;28;20047;-64
2021/05/18 12:07:05;;;;;;;4.65;2.58;;;26.00;32.40;;;;;;5051878;28;20124;-64
2021/05/18 12:09:35;;;;;;;3.63;2.65;;;26.10;32.40;;;;;;5061880;28;20040;-64
2021/05/18 12:12:10;;;;;;;5.57;2.42;;;26.10;31.80;;;;;;5051390;28;20037;-64
2021/05/18 12:14:44;;;;;;;2.40;2.03;;;26.10;32.20;;;;;;5057288;28;20041;-64
2021/05/18 12:17:12;;;;;;;2.33;1.73;;;26.10;31.60;;;;;;5049547;28;20753;-64
2021/05/18 12:19:40;;;;;;;5.68;2.30;;;26.30;31.30;;;;;;5050353;28;20033;-64
2021/05/18 12:22:08;;;;;;;8.48;2.60;;;26.50;31.80;;;;;;5035955;28;20032;-64
2021/05/18 12:24:43;;;;;;;4.57;3.13;;;26.60;32.50;;;;;;5052745;28;20037;-64
2021/05/18 12:27:11;;;;;;;5.80;2.90;;;26.80;32.30;;;;;;5057257;28;20136;-64
2021/05/18 12:29:51;;;;;;;6.35;3.03;;;26.90;32.30;;;;;;5055040;28;20044;-63
2021/05/18 12:32:22;;;;;;;3.65;3.00;;;26.90;32.40;;;;;;5049934;28;20036;-64
2021/05/18 12:34:50;;;;;;;4.55;2.92;;;26.50;32.70;;;;;;5047968;28;20068;-64
2021/05/18 12:37:32;;;;;;;5.32;2.85;;;26.00;32.80;;;;;;5046664;28;20044;-63
2021/05/18 12:40:01;;;;;;;3.17;2.80;;;25.40;33.40;;;;;;5053058;28;20889;-64
2021/05/18 12:42:28;;;;;;;5.03;3.13;;;24.90;33.40;;;;;;5052806;28;20036;-63
2021/05/18 12:45:03;;;;;;;6.40;3.53;;;24.50;35.00;;;;;;5056077;28;20029;-64
2021/05/18 12:47:39;;;;;;;6.93;3.55;;;24.00;35.40;;;;;;5052367;28;20402;-63
2021/05/18 12:50:15;;;;;;;6.55;3.65;;;23.60;35.90;;;;;;5046072;28;20067;-64
2021/05/18 12:52:50;;;;;;;5.07;2.67;;;23.20;37.00;;;;;;5052197;28;20043;-64
2021/05/18 12:55:26;;;;;;;3.03;2.38;;;22.80;37.70;;;;;;5057406;28;20044;-64
2021/05/18 12:58:03;;;;;;;5.10;2.55;;;22.60;38.50;;;;;;5050716;28;20128;-64
2021/05/18 13:00:35;;;;;;;3.72;2.80;;;22.40;38.50;;;;;;5046745;28;20035;-64
2021/05/18 13:03:09;;;;;;;4.07;2.45;;;22.20;39.20;;;;;;5044981;28;22287;-64
2021/05/18 13:05:38;;;;;;;2.55;2.35;;;22.10;39.40;;;;;;5049769;28;20571;-64
2021/05/18 13:08:07;;;;;;;2.65;2.42;;;21.90;39.50;;;;;;5053519;28;20033;-64
2021/05/18 13:10:45;;;;;;;2.40;2.20;;;21.70;39.10;;;;;;5041405;28;20830;-64
2021/05/18 13:13:11;;;;;;;4.05;2.38;;;21.50;39.60;;;;;;5062054;28;20866;-64
2021/05/18 13:15:39;;;;;;;2.40;2.20;;;21.40;39.80;;;;;;5053539;28;20036;-63
2021/05/18 13:18:07;;;;;;;4.13;2.85;;;21.30;40.40;;;;;;5058135;28;20040;-63
2021/05/18 13:20:54;;;;;;;14.30;3.00;;;21.20;39.90;;;;;;5057149;28;20032;-64
2021/05/18 13:28:33;;;;;;;3.08;2.33;;;21.00;40.80;;;;;;5049774;28;20063;-64
2021/05/18 13:31:02;;;;;;;2.92;2.30;;;21.00;41.00;;;;;;5047939;28;20113;-64
2021/05/18 13:33:32;;;;;;;4.22;2.42;;;21.00;41.30;;;;;;5054442;28;20036;-63
2021/05/18 13:35:58;;;;;;;9.73;2.25;;;21.10;41.40;;;;;;5046175;28;20043;-64
2021/05/18 13:38:26;;;;;;;2.40;2.15;;;21.30;42.00;;;;;;5050664;28;21065;-63
2021/05/18 13:40:54;;;;;;;5.22;2.50;;;21.40;41.10;;;;;;5047097;28;20040;-62
2021/05/18 13:43:22;;;;;;;4.38;2.22;;;21.60;40.90;;;;;;5050968;28;20093;-64
2021/05/18 13:45:47;;;;;;;3.22;1.90;;;21.80;40.80;;;;;;5052197;28;20040;-64
2021/05/18 13:48:13;;;;;;;2.70;2.03;;;22.00;40.70;;;;;;5055516;28;20093;-63
2021/05/18 13:50:38;;;;;;;4.10;2.13;;;22.20;40.30;;;;;;5051490;28;20090;-64
2021/05/18 13:53:05;;;;;;;2.25;1.83;;;22.30;40.70;;;;;;5046460;28;20041;-63
2021/05/18 13:55:34;;;;;;;2.78;2.10;;;22.30;40.10;;;;;;5054427;28;20071;-64
2021/05/18 13:58:01;;;;;;;2.53;2.00;;;22.40;39.80;;;;;;5046617;28;20127;-64
2021/05/18 14:00:27;;;;;;;4.57;1.88;;;22.40;39.90;;;;;;5032896;28;20119;-63
2021/05/18 14:02:57;;;;;;;3.20;2.50;;;22.40;39.80;;;;;;5042070;28;20147;-64
2021/05/18 14:05:27;;;;;;;2.70;2.20;;;22.40;40.40;;;;;;5044913;28;20040;-64
2021/05/18 14:11:09;;;;;;;4.60;2.15;;;22.50;39.90;;;;;;5041830;28;20125;-64
2021/05/18 14:13:37;;;;;;;2.63;2.28;;;22.70;39.40;;;;;;5047196;28;20052;-63
2021/05/18 14:16:10;;;;;;;2.35;2.13;;;22.70;39.40;;;;;;5042370;28;20048;-64
2021/05/18 14:18:37;;;;;;;4.97;2.13;;;22.70;39.60;;;;;;5049778;28;20041;-63
2021/05/18 14:21:06;;;;;;;3.10;2.55;;;22.60;39.90;;;;;;5041397;28;20036;-63
2021/05/18 14:23:43;;;;;;;2.55;2.35;;;22.60;39.60;;;;;;5042933;28;20090;-64
2021/05/18 14:26:11;;;;;;;4.65;2.60;;;22.60;39.40;;;;;;5035333;28;20055;-65
2021/05/18 14:28:39;;;;;;;2.92;2.17;;;22.60;39.60;;;;;;5038049;28;20145;-63
2021/05/18 14:31:06;;;;;;;3.83;2.38;;;22.60;40.40;;;;;;5037711;28;20040;-64
2021/05/18 14:33:33;;;;;;;3.75;2.10;;;22.60;39.90;;;;;;5043814;28;20032;-64
2021/05/18 14:35:58;;;;;;;2.28;2.00;;;22.60;40.30;;;;;;5050211;28;20043;-64
2021/05/18 14:38:25;;;;;;;3.65;1.77;;;22.60;40.10;;;;;;5048928;28;20037;-64
2021/05/18 14:54:32;;;;;;;2.33;2.00;;;22.90;38.80;;;;;;5045357;28;20040;-65
2021/05/18 14:57:00;;;;;;;4.45;1.88;;;22.90;38.50;;;;;;5042114;28;20052;-64
2021/05/18 14:59:28;;;;;;;3.40;1.77;;;22.80;39.30;;;;;;5042255;28;21957;-64
2021/05/18 15:01:56;;;;;;;2.55;1.80;;;22.80;38.40;;;;;;5027947;28;20037;-64
2021/05/18 15:04:22;;;;;;;4.43;1.95;;;22.70;38.20;;;;;;5031369;28;20067;-64
2021/05/18 15:06:50;;;;;;;2.15;1.60;;;22.70;38.10;;;;;;5041683;28;20032;-64
2021/05/18 15:09:16;;;;;;;3.42;1.70;;;22.70;38.00;;;;;;5040660;28;20499;-64
2021/05/18 15:11:42;;;;;;;3.35;1.80;;;22.70;37.40;;;;;;5044712;28;20039;-64
2021/05/18 15:14:08;;;;;;;3.60;2.03;;;22.70;37.50;;;;;;5037699;28;20418;-64
2021/05/18 15:16:36;;;;;;;1.80;1.63;;;22.80;36.80;;;;;;5039559;28;20036;-64
2021/05/18 15:19:14;;;;;;;2.78;1.90;;;22.80;36.20;;;;;;5039474;28;20053;-64
2021/05/18 15:21:40;;;;;;;1.70;1.60;;;22.80;36.30;;;;;;5039956;28;20057;-64
2021/05/18 15:24:09;;;;;;;2.55;1.65;;;22.70;36.50;;;;;;5041743;28;20045;-64
2021/05/18 15:26:35;;;;;;;1.85;1.48;;;22.50;37.20;;;;;;5050344;28;20334;-64
2021/05/18 15:29:04;;;;;;;3.10;1.83;;;22.20;37.20;;;;;;5041558;28;20517;-64
2021/05/18 15:31:32;;;;;;;2.75;1.80;;;22.10;37.70;;;;;;5046642;28;20374;-64
2021/05/18 15:33:58;;;;;;;2.72;2.17;;;21.90;37.90;;;;;;5044128;28;20402;-63
2021/05/18 15:36:28;;;;;;;2.65;1.70;;;21.80;37.70;;;;;;5042542;28;20044;-64
2021/05/18 15:38:54;;;;;;;2.70;2.10;;;21.70;38.60;;;;;;5038521;28;20039;-64
2021/05/18 15:41:19;;;;;;;2.72;2.08;;;21.50;38.60;;;;;;5037107;28;20040;-64
2021/05/18 15:43:45;;;;;;;2.17;1.90;;;21.50;39.40;;;;;;5042300;28;20509;-64
2021/05/18 15:46:14;;;;;;;5.15;2.30;;;21.40;39.90;;;;;;5041686;28;20040;-64
2021/05/18 15:48:40;;;;;;;3.33;2.10;;;21.40;39.70;;;;;;5041469;28;20527;-64
2021/05/18 15:51:05;;;;;;;4.57;2.42;;;21.40;39.50;;;;;;5037612;28;20682;-64
2021/05/18 15:53:34;;;;;;;5.55;2.10;;;21.50;39.40;;;;;;5045032;28;20040;-64
2021/05/18 15:56:00;;;;;;;2.55;2.00;;;21.60;39.10;;;;;;5039767;28;20064;-64
2021/05/18 15:58:26;;;;;;;3.13;1.88;;;21.60;39.00;;;;;;5039145;28;20581;-64
2021/05/18 16:00:53;;;;;;;2.55;2.25;;;21.50;38.90;;;;;;5050274;28;20091;-63
2021/05/18 16:03:21;;;;;;;5.50;2.47;;;21.40;38.90;;;;;;5055585;28;20036;-63
2021/05/18 16:05:49;;;;;;;3.80;2.30;;;21.30;39.80;;;;;;5057005;28;20067;-64
2021/05/18 16:11:02;;;;;;;8.52;2.28;;;21.30;40.70;;;;;;5057130;28;20679;-64
2021/05/18 16:13:28;;;;;;;8.07;2.63;;;21.20;41.20;;;;;;5051736;28;20045;-64
2021/05/18 16:15:59;;;;;;;3.83;2.85;;;21.10;41.50;;;;;;5055755;28;20111;-64
2021/05/18 16:18:25;;;;;;;3.97;2.38;;;21.00;42.30;;;;;;5046230;28;20043;-64
2021/05/18 16:20:52;;;;;;;6.25;2.90;;;20.80;42.90;;;;;;5049386;28;20673;-64
2021/05/18 16:23:18;;;;;;;6.90;2.97;;;20.70;43.60;;;;;;5045245;28;20052;-64
2021/05/18 16:25:43;;;;;;;4.45;3.13;;;20.50;44.10;;;;;;5039011;27;20125;-64
2021/05/18 16:28:09;;;;;;;7.20;3.30;;;20.30;44.70;;;;;;5052313;28;20036;-64
2021/05/18 16:30:34;;;;;;;4.65;2.97;;;20.20;45.00;;;;;;5044957;28;20773;-64
2021/05/18 16:33:02;;;;;;;4.68;3.08;;;20.00;45.30;;;;;;5048611;28;20064;-64
2021/05/18 16:35:32;;;;;;;7.68;3.80;;;19.90;45.40;;;;;;5044092;28;20043;-63
2021/05/18 16:37:58;;;;;;;6.43;4.03;;;19.80;45.90;;;;;;5048032;28;20110;-63
2021/05/18 16:40:25;;;;;;;6.65;3.50;;;19.60;46.00;;;;;;5053687;28;20044;-63
2021/05/18 16:42:50;;;;;;;4.80;3.50;;;19.50;46.30;;;;;;5047630;28;20052;-64
2021/05/18 16:45:18;;;;;;;4.88;3.97;;;19.50;46.70;;;;;;5050928;28;20116;-64
2021/05/18 16:47:43;;;;;;;6.47;3.65;;;19.40;47.20;;;;;;5049324;28;20051;-64
2021/05/18 16:50:09;;;;;;;7.82;3.97;;;19.30;47.40;;;;;;5048191;28;20032;-64
2021/05/18 16:52:37;;;;;;;8.48;3.63;;;19.30;47.90;;;;;;5055780;28;20789;-63
2021/05/18 16:55:05;;;;;;;4.82;3.80;;;19.30;48.10;;;;;;5049565;27;20506;-64
2021/05/18 16:57:30;;;;;;;5.00;4.05;;;19.20;48.50;;;;;;5052866;28;20123;-63
2021/05/18 16:59:56;;;;;;;5.68;4.00;;;19.30;48.90;;;;;;5052967;28;20029;-63
2021/05/18 17:02:22;;;;;;;5.32;4.07;;;19.40;48.60;;;;;;5050785;28;20040;-64
2021/05/18 17:04:50;;;;;;;4.80;3.63;;;19.40;48.30;;;;;;5051259;28;20148;-63
2021/05/18 17:07:19;;;;;;;8.23;4.15;;;19.50;48.00;;;;;;5056729;28;20180;-64
2021/05/18 17:09:47;;;;;;;8.50;3.92;;;19.50;47.80;;;;;;5053524;28;20032;-63
2021/05/18 17:12:18;;;;;;;9.23;4.05;;;19.40;47.70;;;;;;5052773;28;20503;-63
2021/05/18 17:14:46;;;;;;;6.88;4.20;;;19.40;47.60;;;;;;5053195;28;20044;-64
2021/05/18 17:17:14;;;;;;;7.22;4.55;;;19.30;47.90;;;;;;5054248;28;20945;-63
2021/05/18 17:19:40;;;;;;;5.68;4.07;;;19.20;47.90;;;;;;5045748;28;20040;-64
2021/05/18 17:22:06;;;;;;;5.53;4.38;;;19.30;48.10;;;;;;5053473;28;20449;-63
2021/05/18 17:24:35;;;;;;;8.18;4.63;;;19.30;48.10;;;;;;5051287;28;20040;-63
2021/05/18 17:27:02;;;;;;;5.47;3.97;;;19.30;48.00;;;;;;5050270;28;20055;-63
2021/05/18 17:29:33;;;;;;;6.32;4.60;;;19.40;48.40;;;;;;5048411;28;20028;-64
2021/05/18 17:32:01;;;;;;;5.80;4.60;;;19.40;47.80;;;;;;5052166;28;20685;-64
2021/05/18 17:34:29;;;;;;;6.57;3.97;;;19.40;47.60;;;;;;5048624;28;20044;-63
2021/05/18 17:36:55;;;;;;;9.82;4.35;;;19.40;47.80;;;;;;5049712;28;20040;-64
2021/05/18 17:39:21;;;;;;;6.00;4.03;;;19.40;47.90;;;;;;5055570;28;20110;-64
2021/05/18 17:41:47;;;;;;;4.38;3.60;;;19.40;47.60;;;;;;5049296;28;20041;-64
2021/05/18 17:44:13;;;;;;;7.60;4.40;;;19.30;47.60;;;;;;5053434;28;20656;-63
2021/05/18 17:46:39;;;;;;;5.68;4.03;;;19.30;47.60;;;;;;5047944;28;20036;-64
2021/05/18 17:49:08;;;;;;;7.20;4.15;;;19.20;47.70;;;;;;5045437;28;20032;-64
2021/05/18 17:51:35;;;;;;;7.43;4.30;;;19.20;47.50;;;;;;5042360;28;20113;-64
2021/05/18 17:54:03;;;;;;;5.13;4.03;;;19.10;47.60;;;;;;5048969;28;20045;-63
2021/05/18 17:56:32;;;;;;;5.40;4.45;;;19.10;47.80;;;;;;5051180;28;20037;-64
2021/05/18 17:59:02;;;;;;;7.28;4.07;;;19.00;47.80;;;;;;5051770;28;20051;-63
2021/05/18 18:01:30;;;;;;;5.70;3.85;;;19.00;48.00;;;;;;5051179;28;20043;-63
2021/05/18 18:03:58;;;;;;;5.18;4.03;;;18.90;47.90;;;;;;5050075;28;20029;-64